Time,TemperatureF,DewpointF,PressureIn,WindDirection,WindDirectionDegrees,WindSpeedMPH,WindSpeedGustMPH,Humidity,HourlyPrecipIn,Conditions,Clouds,dailyrainin,SolarRadiationWatts/m^2,SoftwareType,DateUTC
2013-03-02 00:21:00,24.0,22.0,-100.00,ENE,72,3.0,4.0,91,0.00,,,0.09,0.000000,,2013-03-02 07:21:00,
2013-03-02 00:32:00,24.0,22.0,-100.00,ENE,72,3.0,4.0,91,0.00,,,0.09,0.000000,,2013-03-02 07:32:00,
2013-03-02 00:42:00,24.0,22.0,-100.00,ENE,72,3.0,4.0,91,0.00,,,0.09,0.000000,,2013-03-02 07:42:00,
2013-03-02 00:51:00,24.0,22.0,-100.00,ENE,72,3.0,4.0,91,0.00,,,0.09,0.000000,,2013-03-02 07:51:00,
2013-03-02 01:22:00,24.0,21.0,-100.00,East,79,4.0,5.0,87,0.00,,,0.09,0.000000,,2013-03-02 08:22:00,
2013-03-02 01:32:00,24.0,21.0,-100.00,East,79,4.0,5.0,87,0.00,,,0.09,0.000000,,2013-03-02 08:32:00,
2013-03-02 01:42:00,24.0,21.0,-100.00,East,79,4.0,5.0,87,0.00,,,0.09,0.000000,,2013-03-02 08:42:00,
2013-03-02 01:52:00,24.0,21.0,-100.00,East,79,4.0,5.0,87,0.00,,,0.09,0.000000,,2013-03-02 08:52:00,
2013-03-02 02:21:00,24.0,22.0,-100.00,East,92,3.0,6.0,91,0.00,,,0.09,0.000000,,2013-03-02 09:21:00,
2013-03-02 02:32:00,24.0,22.0,-100.00,East,92,3.0,6.0,91,0.00,,,0.09,0.000000,,2013-03-02 09:32:00,
2013-03-02 02:42:00,24.0,22.0,-100.00,East,92,3.0,6.0,91,0.00,,,0.09,0.000000,,2013-03-02 09:42:00,
2013-03-02 02:51:00,24.0,22.0,-100.00,East,92,3.0,6.0,91,0.00,,,0.09,0.000000,,2013-03-02 09:51:00,
2013-03-02 03:22:00,24.0,22.0,-100.00,ESE,111,3.0,5.0,91,0.00,,,0.09,0.000000,,2013-03-02 10:22:00,
2013-03-02 03:32:00,24.0,22.0,-100.00,ESE,111,3.0,5.0,91,0.00,,,0.09,0.000000,,2013-03-02 10:32:00,
2013-03-02 03:42:00,24.0,22.0,-100.00,ESE,111,3.0,5.0,91,0.00,,,0.09,0.000000,,2013-03-02 10:42:00,
2013-03-02 03:52:00,24.0,22.0,-100.00,ESE,111,3.0,5.0,91,0.00,,,0.09,0.000000,,2013-03-02 10:52:00,
2013-03-02 05:21:00,24.0,21.0,-100.00,East,90,2.0,6.0,88,-99.99,,,0.09,0.000000,,2013-03-02 12:21:00,
2013-03-02 05:33:00,24.0,21.0,-100.00,East,90,2.0,6.0,88,-99.99,,,0.09,0.000000,,2013-03-02 12:33:00,
2013-03-02 05:43:00,24.0,21.0,-100.00,East,90,2.0,6.0,88,-99.99,,,0.09,0.000000,,2013-03-02 12:43:00,
2013-03-02 05:53:00,24.0,21.0,-100.00,East,90,2.0,6.0,88,-99.99,,,0.09,0.000000,,2013-03-02 12:53:00,
2013-03-02 06:22:00,24.0,21.0,-100.00,SSE,156,1.0,3.0,87,0.00,,,0.09,0.000000,,2013-03-02 13:22:00,
2013-03-02 06:32:00,24.0,21.0,-100.00,SSE,156,1.0,3.0,87,0.00,,,0.09,0.000000,,2013-03-02 13:32:00,
2013-03-02 06:42:00,24.0,21.0,-100.00,SSE,156,1.0,3.0,87,0.00,,,0.09,0.000000,,2013-03-02 13:42:00,
2013-03-02 06:52:00,24.0,21.0,-100.00,SSE,156,1.0,3.0,87,0.00,,,0.09,0.000000,,2013-03-02 13:52:00,
2013-03-02 07:21:00,23.0,20.0,-100.00,ENE,60,3.0,3.0,87,0.00,,,0.09,4.000000,,2013-03-02 14:21:00,
2013-03-02 07:32:00,23.0,20.0,-100.00,ENE,60,3.0,3.0,87,0.00,,,0.09,4.000000,,2013-03-02 14:32:00,
2013-03-02 07:42:00,23.0,20.0,-100.00,ENE,60,3.0,3.0,87,0.00,,,0.09,4.000000,,2013-03-02 14:42:00,
2013-03-02 07:52:00,23.0,20.0,-100.00,ENE,60,3.0,3.0,87,0.00,,,0.09,4.000000,,2013-03-02 14:52:00,
2013-03-02 08:21:00,25.0,21.0,-100.00,ESE,109,3.0,4.0,84,0.00,,,0.09,55.000000,,2013-03-02 15:21:00,
2013-03-02 08:32:00,25.0,21.0,-100.00,ESE,109,3.0,4.0,84,0.00,,,0.09,55.000000,,2013-03-02 15:32:00,
2013-03-02 08:42:00,25.0,21.0,-100.00,ESE,109,3.0,4.0,84,0.00,,,0.09,55.000000,,2013-03-02 15:42:00,
2013-03-02 08:52:00,25.0,21.0,-100.00,ESE,109,3.0,4.0,84,0.00,,,0.09,55.000000,,2013-03-02 15:52:00,
2013-03-02 09:21:00,32.0,23.0,-100.00,ESE,103,3.0,5.0,69,0.00,,,0.09,206.000000,,2013-03-02 16:21:00,
2013-03-02 09:32:00,32.0,23.0,-100.00,ESE,103,3.0,5.0,69,0.00,,,0.09,206.000000,,2013-03-02 16:32:00,
2013-03-02 09:42:00,32.0,23.0,-100.00,ESE,103,3.0,5.0,69,0.00,,,0.09,206.000000,,2013-03-02 16:42:00,
2013-03-02 09:51:00,32.0,23.0,-100.00,ESE,103,3.0,5.0,69,0.00,,,0.09,206.000000,,2013-03-02 16:51:00,
2013-03-02 10:11:00,44.0,23.0,-100.00,SSE,168,2.0,5.0,43,0.00,,,0.09,488.000000,,2013-03-02 17:11:00,
2013-03-02 10:21:00,44.0,23.0,-100.00,SSE,168,2.0,5.0,43,0.00,,,0.09,488.000000,,2013-03-02 17:21:00,
2013-03-02 10:32:00,44.0,23.0,-100.00,SSE,168,2.0,5.0,43,0.00,,,0.09,488.000000,,2013-03-02 17:32:00,
2013-03-02 10:42:00,44.0,23.0,-100.00,SSE,168,2.0,5.0,43,0.00,,,0.09,488.000000,,2013-03-02 17:42:00,
2013-03-02 10:52:00,44.0,23.0,-100.00,SSE,168,2.0,5.0,43,0.00,,,0.09,488.000000,,2013-03-02 17:52:00,
2013-03-02 11:22:00,38.0,21.0,-100.00,WSW,248,6.0,11.0,50,0.00,,,0.09,627.000000,,2013-03-02 18:22:00,
2013-03-02 11:32:00,38.0,21.0,-100.00,WSW,248,6.0,11.0,50,0.00,,,0.09,627.000000,,2013-03-02 18:32:00,
2013-03-02 11:42:00,38.0,21.0,-100.00,WSW,248,6.0,11.0,50,0.00,,,0.09,627.000000,,2013-03-02 18:42:00,
2013-03-02 11:52:00,38.0,21.0,-100.00,WSW,248,6.0,11.0,50,0.00,,,0.09,627.000000,,2013-03-02 18:52:00,
2013-03-02 12:22:00,38.0,20.0,-100.00,West,260,9.0,14.0,48,0.00,,,0.06,707.000000,,2013-03-02 19:22:00,
2013-03-02 12:32:00,38.0,20.0,-100.00,West,260,9.0,14.0,48,0.00,,,0.06,707.000000,,2013-03-02 19:32:00,
2013-03-02 12:42:00,38.0,20.0,-100.00,West,260,9.0,14.0,48,0.00,,,0.06,707.000000,,2013-03-02 19:42:00,
2013-03-02 12:52:00,38.0,20.0,-100.00,West,260,9.0,14.0,48,0.00,,,0.06,707.000000,,2013-03-02 19:52:00,
2013-03-02 13:22:00,40.0,20.0,-100.00,WSW,258,10.0,16.0,45,0.00,,,0.01,783.000000,,2013-03-02 20:22:00,
2013-03-02 13:32:00,40.0,20.0,-100.00,WSW,258,10.0,16.0,45,0.00,,,0.01,783.000000,,2013-03-02 20:32:00,
2013-03-02 13:42:00,40.0,20.0,-100.00,WSW,258,10.0,16.0,45,0.00,,,0.01,783.000000,,2013-03-02 20:42:00,
2013-03-02 13:52:00,40.0,20.0,-100.00,WSW,258,10.0,16.0,45,0.00,,,0.01,783.000000,,2013-03-02 20:52:00,
2013-03-02 14:22:00,42.0,18.0,-100.00,WSW,254,11.0,16.0,38,0.00,,,0.01,766.000000,,2013-03-02 21:22:00,
2013-03-02 14:32:00,42.0,18.0,-100.00,WSW,254,11.0,16.0,38,0.00,,,0.01,766.000000,,2013-03-02 21:32:00,
2013-03-02 14:42:00,42.0,18.0,-100.00,WSW,254,11.0,16.0,38,0.00,,,0.01,766.000000,,2013-03-02 21:42:00,
2013-03-02 14:52:00,42.0,18.0,-100.00,WSW,254,11.0,16.0,38,0.00,,,0.01,766.000000,,2013-03-02 21:52:00,
2013-03-02 15:22:00,40.0,20.0,-100.00,West,259,11.0,18.0,44,0.00,,,0.00,553.000000,,2013-03-02 22:22:00,
2013-03-02 15:32:00,40.0,20.0,-100.00,West,259,11.0,18.0,44,0.00,,,0.00,553.000000,,2013-03-02 22:32:00,
2013-03-02 15:42:00,40.0,20.0,-100.00,West,259,11.0,18.0,44,0.00,,,0.00,553.000000,,2013-03-02 22:42:00,
2013-03-02 15:51:00,40.0,20.0,-100.00,West,259,11.0,18.0,44,0.00,,,0.00,553.000000,,2013-03-02 22:51:00,
2013-03-02 16:11:00,40.0,20.0,-100.00,West,261,9.0,16.0,44,0.00,,,0.00,402.000000,,2013-03-02 23:11:00,
2013-03-02 16:21:00,40.0,20.0,-100.00,West,261,9.0,16.0,44,0.00,,,0.00,402.000000,,2013-03-02 23:21:00,
2013-03-02 16:32:00,40.0,20.0,-100.00,West,261,9.0,16.0,44,0.00,,,0.00,402.000000,,2013-03-02 23:32:00,
2013-03-02 16:42:00,40.0,20.0,-100.00,West,261,9.0,16.0,44,0.00,,,0.00,402.000000,,2013-03-02 23:42:00,
2013-03-02 16:52:00,40.0,20.0,-100.00,West,261,9.0,16.0,44,0.00,,,0.00,402.000000,,2013-03-02 23:52:00,
2013-03-02 17:22:00,40.0,19.0,-100.00,WSW,256,10.0,13.0,42,0.00,,,0.00,312.000000,,2013-03-03 00:22:00,
2013-03-02 17:32:00,40.0,19.0,-100.00,WSW,256,10.0,13.0,42,0.00,,,0.00,312.000000,,2013-03-03 00:32:00,
2013-03-02 17:42:00,40.0,19.0,-100.00,WSW,256,10.0,13.0,42,0.00,,,0.00,312.000000,,2013-03-03 00:42:00,
2013-03-02 17:52:00,40.0,19.0,-100.00,WSW,256,10.0,13.0,42,0.00,,,0.00,312.000000,,2013-03-03 00:52:00,
2013-03-02 18:21:00,37.0,19.0,-100.00,West,272,5.0,13.0,47,0.00,,,0.00,114.000000,,2013-03-03 01:21:00,
2013-03-02 18:32:00,37.0,19.0,-100.00,West,272,5.0,13.0,47,0.00,,,0.00,114.000000,,2013-03-03 01:32:00,
2013-03-02 18:42:00,37.0,19.0,-100.00,West,272,5.0,13.0,47,0.00,,,0.00,114.000000,,2013-03-03 01:42:00,
2013-03-02 18:52:00,37.0,19.0,-100.00,West,272,5.0,13.0,47,0.00,,,0.00,114.000000,,2013-03-03 01:52:00,
2013-03-02 19:21:00,34.0,17.0,-100.00,NNE,20,1.0,7.0,49,0.00,,,0.00,1.000000,,2013-03-03 02:21:00,
2013-03-02 19:32:00,34.0,17.0,-100.00,NNE,20,1.0,7.0,49,0.00,,,0.00,1.000000,,2013-03-03 02:32:00,
2013-03-02 19:42:00,34.0,17.0,-100.00,NNE,20,1.0,7.0,49,0.00,,,0.00,1.000000,,2013-03-03 02:42:00,
2013-03-02 19:52:00,34.0,17.0,-100.00,NNE,20,1.0,7.0,49,0.00,,,0.00,1.000000,,2013-03-03 02:52:00,
2013-03-02 20:21:00,30.0,20.0,-100.00,East,81,3.0,5.0,65,0.00,,,0.00,0.000000,,2013-03-03 03:21:00,
2013-03-02 20:32:00,30.0,20.0,-100.00,East,81,3.0,5.0,65,0.00,,,0.00,0.000000,,2013-03-03 03:32:00,
2013-03-02 20:42:00,30.0,20.0,-100.00,East,81,3.0,5.0,65,0.00,,,0.00,0.000000,,2013-03-03 03:42:00,
2013-03-02 20:51:00,30.0,20.0,-100.00,East,81,3.0,5.0,65,0.00,,,0.00,0.000000,,2013-03-03 03:51:00,
2013-03-02 21:21:00,28.0,19.0,-100.00,ENE,74,7.0,10.0,69,0.00,,,0.00,0.000000,,2013-03-03 04:21:00,
2013-03-02 21:32:00,28.0,19.0,-100.00,ENE,74,7.0,10.0,69,0.00,,,0.00,0.000000,,2013-03-03 04:32:00,
2013-03-02 21:42:00,28.0,19.0,-100.00,ENE,74,7.0,10.0,69,0.00,,,0.00,0.000000,,2013-03-03 04:42:00,
2013-03-02 21:51:00,28.0,19.0,-100.00,ENE,74,7.0,10.0,69,0.00,,,0.00,0.000000,,2013-03-03 04:51:00,
2013-03-02 22:22:00,27.0,20.0,-100.00,East,88,5.0,13.0,73,0.00,,,0.00,0.000000,,2013-03-03 05:22:00,
2013-03-02 22:32:00,27.0,20.0,-100.00,East,88,5.0,13.0,73,0.00,,,0.00,0.000000,,2013-03-03 05:32:00,
2013-03-02 22:42:00,27.0,20.0,-100.00,East,88,5.0,13.0,73,0.00,,,0.00,0.000000,,2013-03-03 05:42:00,
2013-03-02 22:52:00,27.0,20.0,-100.00,East,88,5.0,13.0,73,0.00,,,0.00,0.000000,,2013-03-03 05:52:00,
2013-03-02 23:21:00,27.0,19.0,-100.00,East,85,9.0,11.0,71,0.00,,,0.00,0.000000,,2013-03-03 06:21:00,
2013-03-02 23:32:00,27.0,19.0,-100.00,East,85,9.0,11.0,71,0.00,,,0.00,0.000000,,2013-03-03 06:32:00,
2013-03-02 23:42:00,27.0,19.0,-100.00,East,85,9.0,11.0,71,0.00,,,0.00,0.000000,,2013-03-03 06:42:00,
2013-03-02 23:52:00,27.0,19.0,-100.00,East,85,9.0,11.0,71,0.00,,,0.00,0.000000,,2013-03-03 06:52:00,